createdAt,value
2022-12-13T00:00:49.316Z,64.21
2022-12-13T00:03:36.203Z,65.13
2022-12-13T00:06:05.317Z,64.17
2022-12-13T00:08:32.155Z,63.73
2022-12-13T00:11:19.370Z,63.89
2022-12-13T00:13:49.402Z,63.46
2022-12-13T00:16:17.105Z,62.95
2022-12-13T00:18:48.960Z,62.95
2022-12-13T00:21:20.994Z,63.42
2022-12-13T00:23:48.121Z,63.35
2022-12-13T00:26:17.348Z,63.03
2022-12-13T00:28:44.313Z,63.06
2022-12-13T00:31:51.530Z,63.19
2022-12-13T00:33:58.750Z,62.99
2022-12-13T00:36:26.876Z,62.72
2022-12-13T00:39:02.840Z,62.55
2022-12-13T00:41:31.654Z,62.31
2022-12-13T00:43:58.662Z,61.83
2022-12-13T00:46:26.584Z,61.52
2022-12-13T00:48:54.991Z,61.81
2022-12-13T00:51:41.804Z,60.85
2022-12-13T00:54:12.839Z,61.69
2022-12-13T00:56:39.770Z,61.96
2022-12-13T00:59:07.012Z,61.31
2022-12-13T01:01:34.748Z,60.98
2022-12-13T01:04:02.692Z,60.42
2022-12-13T01:06:29.639Z,60.03
2022-12-13T01:08:59.054Z,59.66
2022-12-13T01:11:25.811Z,59.45
2022-12-13T01:13:52.723Z,59.30
2022-12-13T01:16:20.029Z,59.26
2022-12-13T01:18:47.576Z,59.52
2022-12-13T01:21:18.168Z,59.46
2022-12-13T01:23:45.330Z,59.60
2022-12-13T01:26:17.764Z,59.45
2022-12-13T01:28:44.658Z,58.85
2022-12-13T01:31:13.123Z,58.74
2022-12-13T01:33:40.387Z,58.06
2022-12-13T01:36:28.412Z,57.78
2022-12-13T01:39:15.848Z,57.63
2022-12-13T01:41:44.524Z,58.44
2022-12-13T01:44:29.861Z,59.02
2022-12-13T01:46:56.703Z,59.21
2022-12-13T01:49:23.636Z,59.30
2022-12-13T01:51:56.268Z,59.03
2022-12-13T01:54:34.198Z,59.24
2022-12-13T01:57:03.722Z,59.10
2022-12-13T01:59:30.566Z,58.74
2022-12-13T02:02:01.016Z,58.61
2022-12-13T02:04:34.509Z,58.54
2022-12-13T02:07:13.050Z,58.61
2022-12-13T02:09:41.556Z,58.78
2022-12-13T02:12:09.005Z,58.34
2022-12-13T02:14:38.104Z,58.13
2022-12-13T02:17:16.856Z,60.30
2022-12-13T02:19:58.700Z,63.18
2022-12-13T02:22:40.675Z,62.24
2022-12-13T02:27:53.219Z,62.54
2022-12-13T02:30:48.422Z,62.42
2022-12-13T02:33:25.059Z,62.45
2022-12-13T02:35:57.799Z,61.45
2022-12-13T02:38:37.858Z,60.91
2022-12-13T02:41:16.832Z,60.95
2022-12-13T02:44:01.364Z,60.77
2022-12-13T02:46:30.552Z,60.75
2022-12-13T02:49:00.096Z,60.02
2022-12-13T02:51:27.824Z,59.30
2022-12-13T02:53:54.710Z,60.46
2022-12-13T02:56:22.654Z,59.75
2022-12-13T02:58:53.656Z,59.85
2022-12-13T03:01:28.592Z,59.49
2022-12-13T03:04:03.027Z,59.34
2022-12-13T03:06:34.077Z,60.08
2022-12-13T03:09:10.773Z,60.46
2022-12-13T03:12:08.061Z,62.17
2022-12-13T03:14:36.801Z,61.69
2022-12-13T03:17:06.550Z,60.66
2022-12-13T03:19:33.520Z,60.61
2022-12-13T03:22:00.601Z,61.40
2022-12-13T03:24:27.602Z,62.58
2022-12-13T03:26:54.363Z,61.94
2022-12-13T03:29:23.974Z,61.29
2022-12-13T03:31:51.891Z,60.95
2022-12-13T03:34:22.312Z,60.37
2022-12-13T03:36:50.102Z,59.88
2022-12-13T03:39:17.051Z,59.63
2022-12-13T03:41:44.042Z,59.05
2022-12-13T03:44:11.239Z,58.56
2022-12-13T03:46:38.294Z,58.65
2022-12-13T03:49:06.591Z,58.43
2022-12-13T03:51:33.757Z,58.49
2022-12-13T03:54:00.809Z,58.49
2022-12-13T03:56:29.661Z,58.19
2022-12-13T03:59:00.049Z,58.28
2022-12-13T04:01:26.851Z,58.37
2022-12-13T04:03:55.286Z,57.83
2022-12-13T04:06:24.020Z,58.34
2022-12-13T04:08:53.341Z,58.51
2022-12-13T04:11:42.578Z,58.08
2022-12-13T04:14:23.807Z,58.80
2022-12-13T04:16:55.090Z,62.98
2022-12-13T04:19:24.278Z,61.48
2022-12-13T04:21:54.714Z,60.63
2022-12-13T04:24:31.299Z,61.36
2022-12-13T04:27:07.211Z,61.02
2022-12-13T04:29:37.757Z,60.66
2022-12-13T04:32:05.441Z,60.32
2022-12-13T04:35:12.721Z,62.17
2022-12-13T04:37:43.748Z,62.84
2022-12-13T04:40:22.816Z,63.71
2022-12-13T04:46:10.868Z,63.30
2022-12-13T04:51:36.419Z,62.46
2022-12-13T04:54:23.955Z,61.95
2022-12-13T04:56:55.268Z,62.31
2022-12-13T05:02:05.177Z,61.25
2022-12-13T05:04:33.622Z,61.20
2022-12-13T05:07:03.527Z,60.61
2022-12-13T05:09:31.381Z,61.66
2022-12-13T05:12:01.046Z,65.93
2022-12-13T05:14:35.129Z,66.21
2022-12-13T05:17:05.260Z,63.80
2022-12-13T05:19:32.780Z,63.61
2022-12-13T05:22:01.573Z,63.11
2022-12-13T05:24:29.829Z,67.02
2022-12-13T05:26:57.895Z,64.86
2022-12-13T05:29:29.200Z,64.53
2022-12-13T05:31:58.296Z,64.37
2022-12-13T05:34:25.697Z,64.00
2022-12-13T05:36:52.876Z,63.64
2022-12-13T05:39:28.013Z,63.16
2022-12-13T05:42:01.056Z,62.51
2022-12-13T05:44:43.991Z,62.18
2022-12-13T05:47:12.867Z,62.41
2022-12-13T05:49:39.898Z,62.31
2022-12-13T05:52:15.548Z,61.41
2022-12-13T05:54:42.953Z,60.96
2022-12-13T05:57:10.461Z,60.73
2022-12-13T05:59:37.278Z,60.86
2022-12-13T06:02:06.436Z,61.17
2022-12-13T06:04:34.634Z,60.88
2022-12-13T06:07:01.914Z,60.11
2022-12-13T06:09:29.829Z,60.08
2022-12-13T06:12:00.920Z,59.88
2022-12-13T06:14:28.836Z,60.23
2022-12-13T06:16:57.917Z,59.94
2022-12-13T06:19:27.438Z,60.01
2022-12-13T06:22:11.880Z,61.26
2022-12-13T06:24:42.181Z,60.13
2022-12-13T06:27:28.877Z,61.31
2022-12-13T06:30:13.985Z,62.06
2022-12-13T06:32:44.089Z,62.44
2022-12-13T06:35:28.657Z,61.79
2022-12-13T06:38:01.124Z,62.33
2022-12-13T06:40:34.106Z,62.11
2022-12-13T06:43:01.281Z,61.08
2022-12-13T06:45:28.122Z,61.21
2022-12-13T06:47:56.269Z,61.41
2022-12-13T06:50:27.020Z,62.53
2022-12-13T06:52:58.139Z,63.42
2022-12-13T06:55:24.793Z,63.10
2022-12-13T06:57:52.208Z,64.02
2022-12-13T07:00:22.420Z,64.08
2022-12-13T07:02:54.256Z,62.62
2022-12-13T07:05:22.197Z,63.36
2022-12-13T07:08:11.411Z,62.45
2022-12-13T07:10:40.775Z,60.04
2022-12-13T07:13:07.613Z,56.79
2022-12-13T07:15:34.828Z,55.29
2022-12-13T07:18:02.949Z,54.90
2022-12-13T07:20:29.854Z,53.34
2022-12-13T07:22:58.767Z,51.90
2022-12-13T07:25:27.555Z,51.05
2022-12-13T07:28:01.065Z,50.89
2022-12-13T07:30:28.858Z,51.63
2022-12-13T07:32:55.598Z,51.93
2022-12-13T07:35:25.131Z,51.35
2022-12-13T07:37:51.963Z,51.42
2022-12-13T07:40:18.770Z,50.93
2022-12-13T07:42:52.109Z,50.56
2022-12-13T07:45:19.287Z,49.46
2022-12-13T07:47:46.092Z,48.84
2022-12-13T07:50:24.164Z,47.94
2022-12-13T07:52:52.164Z,47.39
2022-12-13T07:55:18.952Z,47.52
2022-12-13T07:57:50.322Z,47.09
2022-12-13T08:00:17.588Z,47.16
2022-12-13T08:02:44.268Z,47.40
2022-12-13T08:05:26.421Z,47.22
2022-12-13T08:07:55.947Z,47.91
2022-12-13T08:10:22.836Z,46.70
2022-12-13T08:12:52.396Z,46.35
2022-12-13T08:15:19.480Z,44.47
2022-12-13T08:17:48.459Z,43.10
2022-12-13T08:20:22.273Z,42.70
2022-12-13T08:23:01.626Z,41.67
2022-12-13T08:25:31.763Z,41.96
2022-12-13T08:28:01.659Z,43.17
2022-12-13T08:30:31.148Z,45.90
2022-12-13T08:32:57.938Z,46.20
2022-12-13T08:35:33.479Z,46.06
2022-12-13T08:38:02.915Z,46.54
2022-12-13T08:40:29.679Z,47.91
2022-12-13T08:42:56.576Z,48.28
2022-12-13T08:45:24.537Z,47.97
2022-12-13T08:47:51.461Z,46.51
2022-12-13T08:50:18.376Z,46.98
2022-12-13T08:52:51.794Z,46.27
2022-12-13T08:55:23.771Z,46.53
2022-12-13T08:58:01.166Z,45.68
2022-12-13T09:00:28.698Z,44.56
2022-12-13T09:03:04.757Z,43.90
2022-12-13T09:05:35.174Z,44.48
2022-12-13T09:08:24.179Z,44.57
2022-12-13T09:11:01.587Z,42.79
2022-12-13T09:13:39.434Z,40.16
2022-12-13T09:16:23.277Z,39.63
2022-12-13T09:18:54.725Z,38.90
2022-12-13T09:21:22.680Z,40.37
2022-12-13T09:24:01.380Z,38.45
2022-12-13T09:26:29.015Z,39.68
2022-12-13T09:29:10.281Z,38.75
2022-12-13T09:31:41.221Z,39.21
2022-12-13T09:34:09.273Z,39.81
2022-12-13T09:36:40.001Z,42.06
2022-12-13T09:39:07.074Z,44.44
2022-12-13T09:41:41.162Z,42.38
2022-12-13T09:44:32.115Z,41.19
2022-12-13T09:47:14.076Z,41.13
2022-12-13T09:49:52.162Z,42.70
2022-12-13T09:52:22.514Z,42.87
2022-12-13T09:54:51.563Z,44.63
2022-12-13T09:57:31.577Z,42.35
2022-12-13T10:00:13.401Z,42.78
2022-12-13T10:02:45.782Z,41.12
2022-12-13T10:05:23.308Z,39.92
2022-12-13T10:07:53.111Z,41.31
2022-12-13T10:10:20.274Z,41.12
2022-12-13T10:12:50.816Z,40.47
2022-12-13T10:15:24.420Z,41.07
2022-12-13T10:17:55.195Z,42.00
2022-12-13T10:20:28.401Z,43.09
2022-12-13T10:23:31.414Z,42.34
2022-12-13T10:25:50.973Z,41.98
2022-12-13T10:28:26.014Z,40.31
2022-12-13T10:30:55.205Z,39.21
2022-12-13T10:33:24.827Z,39.71
2022-12-13T10:36:07.872Z,40.37
2022-12-13T10:38:39.087Z,37.38
2022-12-13T10:41:25.792Z,40.04
2022-12-13T10:44:08.319Z,39.68
2022-12-13T10:46:38.868Z,38.46
2022-12-13T10:49:16.184Z,40.58
2022-12-13T10:51:43.617Z,39.85
2022-12-13T10:54:25.589Z,41.89
2022-12-13T10:56:56.236Z,39.58
2022-12-13T10:59:33.501Z,40.08
2022-12-13T11:02:04.031Z,39.82
2022-12-13T11:04:32.422Z,39.91
2022-12-13T11:07:21.067Z,37.53
2022-12-13T11:09:52.573Z,40.42
2022-12-13T11:12:24.211Z,39.86
2022-12-13T11:15:01.648Z,40.97
2022-12-13T11:17:29.998Z,43.02
2022-12-13T11:19:58.541Z,45.79
2022-12-13T11:22:35.143Z,45.88
2022-12-13T11:25:04.278Z,46.05
2022-12-13T11:27:46.451Z,46.39
2022-12-13T11:30:25.736Z,46.38
2022-12-13T11:33:00.360Z,42.14
2022-12-13T11:35:43.054Z,41.88
2022-12-13T11:38:11.839Z,42.16
2022-12-13T11:40:43.337Z,41.59
2022-12-13T11:43:31.124Z,43.00
2022-12-13T11:45:59.620Z,43.96
2022-12-13T11:48:35.676Z,43.26
2022-12-13T11:51:07.819Z,43.55
2022-12-13T11:53:56.715Z,43.78
2022-12-13T11:56:27.834Z,43.25
2022-12-13T11:59:07.077Z,43.37
2022-12-13T12:01:42.098Z,44.90
2022-12-13T12:04:14.799Z,43.20
2022-12-13T12:06:48.724Z,44.13
2022-12-13T12:09:18.030Z,44.08
2022-12-13T12:11:45.154Z,44.92
2022-12-13T12:14:21.728Z,42.87
2022-12-13T12:17:01.184Z,41.64
2022-12-13T12:19:37.032Z,41.94
2022-12-13T12:22:18.605Z,40.73
2022-12-13T12:24:47.411Z,41.55
2022-12-13T12:27:32.881Z,38.66
2022-12-13T12:30:07.813Z,37.92
2022-12-13T12:32:42.231Z,37.27
2022-12-13T12:35:20.514Z,38.07
2022-12-13T12:38:04.204Z,37.23
2022-12-13T12:41:23.186Z,35.88
2022-12-13T12:43:41.414Z,36.06
2022-12-13T12:47:09.029Z,36.62
2022-12-13T12:49:46.937Z,35.06
2022-12-13T12:52:41.197Z,35.16
2022-12-13T12:55:29.580Z,34.36
2022-12-13T12:57:58.179Z,35.52
2022-12-13T13:00:30.899Z,34.95
2022-12-13T13:03:26.880Z,34.67
2022-12-13T13:06:13.369Z,33.77
2022-12-13T13:08:54.970Z,34.05
2022-12-13T13:11:32.201Z,32.74
2022-12-13T13:14:03.878Z,34.33
2022-12-13T13:16:41.003Z,34.50
2022-12-13T13:19:15.435Z,33.06
2022-12-13T13:21:48.746Z,35.70
2022-12-13T13:27:11.391Z,32.54
2022-12-13T13:29:49.079Z,32.91
2022-12-13T13:32:41.206Z,33.76
2022-12-13T13:35:27.856Z,36.30
2022-12-13T13:37:58.279Z,37.21
2022-12-13T13:40:31.893Z,36.79
2022-12-13T13:43:16.462Z,39.53
2022-12-13T13:45:51.911Z,41.11
2022-12-13T13:48:24.701Z,42.52
2022-12-13T13:51:15.442Z,43.65
2022-12-13T13:53:44.924Z,43.22
2022-12-13T13:56:32.710Z,44.74
2022-12-13T13:59:26.792Z,45.16
2022-12-13T14:02:27.809Z,46.09
2022-12-13T14:05:10.880Z,44.51
2022-12-13T14:07:40.838Z,46.44
2022-12-13T14:10:29.997Z,47.54
2022-12-13T14:13:12.690Z,47.24
2022-12-13T14:15:51.731Z,46.57
2022-12-13T14:18:22.516Z,47.44
2022-12-13T14:21:00.083Z,47.82
2022-12-13T14:23:39.793Z,46.85
2022-12-13T14:26:28.505Z,46.63
2022-12-13T14:28:57.144Z,46.31
2022-12-13T14:31:33.864Z,48.59
2022-12-13T14:34:25.317Z,49.14
2022-12-13T14:37:01.237Z,48.34
2022-12-13T14:39:29.828Z,47.16
2022-12-13T14:41:58.931Z,48.09
2022-12-13T14:44:34.892Z,48.40
2022-12-13T14:47:04.562Z,48.69
2022-12-13T14:49:34.069Z,47.89
2022-12-13T14:52:26.890Z,49.76
2022-12-13T14:55:08.475Z,48.71
2022-12-13T14:57:41.988Z,48.20
2022-12-13T15:00:43.428Z,48.00
2022-12-13T15:03:22.445Z,49.07
2022-12-13T15:05:52.577Z,48.74
2022-12-13T15:08:20.178Z,49.67
2022-12-13T15:10:48.878Z,52.23
2022-12-13T15:13:24.832Z,53.23
2022-12-13T15:15:57.765Z,54.95
2022-12-13T15:18:27.961Z,56.92
2022-12-13T15:20:59.366Z,54.64
2022-12-13T15:23:48.876Z,54.75
2022-12-13T15:26:29.048Z,54.62
2022-12-13T15:28:58.389Z,54.43
2022-12-13T15:31:25.233Z,55.13
2022-12-13T15:33:52.044Z,54.94
2022-12-13T15:36:23.055Z,54.29
2022-12-13T15:38:55.885Z,55.65
2022-12-13T15:41:30.773Z,55.23
2022-12-13T15:43:59.514Z,57.25
2022-12-13T15:46:33.024Z,58.74
2022-12-13T15:49:03.368Z,58.20
2022-12-13T15:51:30.946Z,59.68
2022-12-13T15:54:06.109Z,59.64
2022-12-13T15:56:41.802Z,56.81
2022-12-13T15:59:25.050Z,59.25
2022-12-13T16:01:58.244Z,60.26
2022-12-13T16:04:30.189Z,61.00
2022-12-13T16:07:01.521Z,61.49
2022-12-13T16:09:33.827Z,59.42
2022-12-13T16:12:02.082Z,58.89
2022-12-13T16:14:31.038Z,58.79
2022-12-13T16:17:00.709Z,61.44
2022-12-13T16:19:35.559Z,61.97
2022-12-13T16:22:08.280Z,62.47
2022-12-13T16:24:36.419Z,63.14
2022-12-13T16:27:08.609Z,63.97
2022-12-13T16:29:36.196Z,63.26
2022-12-13T16:32:08.064Z,62.34
2022-12-13T16:34:36.310Z,63.10
2022-12-13T16:37:03.167Z,60.95
2022-12-13T16:39:35.556Z,61.27
2022-12-13T16:42:02.285Z,61.25
2022-12-13T16:44:32.128Z,59.75
2022-12-13T16:47:12.404Z,63.05
2022-12-13T16:49:45.544Z,62.93
2022-12-13T16:52:12.348Z,63.78
2022-12-13T16:54:39.119Z,62.06
2022-12-13T16:57:05.876Z,63.35
2022-12-13T16:59:33.839Z,61.58
2022-12-13T17:02:06.859Z,62.86
2022-12-13T17:04:38.346Z,62.54
2022-12-13T17:07:14.831Z,62.78
2022-12-13T17:09:47.103Z,60.46
2022-12-13T17:12:15.318Z,60.62
2022-12-13T17:14:47.536Z,60.24
2022-12-13T17:17:17.543Z,60.76
2022-12-13T17:19:45.668Z,59.50
2022-12-13T17:22:17.057Z,61.14
2022-12-13T17:24:46.282Z,61.21
2022-12-13T17:27:22.704Z,61.92
2022-12-13T17:29:49.809Z,61.44
2022-12-13T17:32:16.668Z,61.12
2022-12-13T17:34:43.518Z,60.24
2022-12-13T17:37:10.717Z,61.32
2022-12-13T17:39:38.013Z,61.21
2022-12-13T17:42:06.128Z,60.05
2022-12-13T17:44:33.035Z,60.91
2022-12-13T17:47:01.525Z,59.15
2022-12-13T17:49:28.583Z,60.47
2022-12-13T17:51:55.856Z,58.89
2022-12-13T17:54:27.866Z,59.05
2022-12-13T17:57:14.608Z,59.13
2022-12-13T17:59:43.253Z,58.62
2022-12-13T18:02:12.148Z,58.12
2022-12-13T18:04:41.029Z,57.76
2022-12-13T18:07:08.082Z,57.47
2022-12-13T18:09:36.814Z,57.21
2022-12-13T18:12:03.742Z,57.07
2022-12-13T18:14:30.483Z,56.61
2022-12-13T18:16:57.283Z,56.41
2022-12-13T18:19:26.022Z,56.46
2022-12-13T18:21:52.799Z,58.34
2022-12-13T18:24:19.477Z,59.67
2022-12-13T18:26:48.164Z,60.32
2022-12-13T18:29:14.822Z,60.56
2022-12-13T18:31:41.775Z,58.71
2022-12-13T18:34:10.908Z,59.89
2022-12-13T18:36:39.639Z,58.81
2022-12-13T18:39:06.552Z,58.89
2022-12-13T18:41:33.354Z,58.24
2022-12-13T18:44:04.533Z,58.69
2022-12-13T18:46:34.800Z,57.77
2022-12-13T18:49:01.670Z,57.29
2022-12-13T18:51:28.556Z,58.50
2022-12-13T18:53:56.297Z,59.48
2022-12-13T18:56:23.593Z,58.66
2022-12-13T18:58:50.997Z,58.86
2022-12-13T19:01:18.391Z,58.38
2022-12-13T19:03:48.356Z,58.10
2022-12-13T19:06:16.998Z,58.57
2022-12-13T19:08:45.913Z,58.83
2022-12-13T19:11:12.789Z,60.65
2022-12-13T19:13:39.825Z,60.48
2022-12-13T19:16:08.256Z,59.75
2022-12-13T19:18:35.574Z,62.13
2022-12-13T19:21:02.618Z,61.44
2022-12-13T19:23:29.844Z,62.68
2022-12-13T19:25:56.832Z,62.72
2022-12-13T19:28:23.821Z,61.46
2022-12-13T19:30:50.743Z,60.61
2022-12-13T19:33:18.661Z,61.84
2022-12-13T19:35:49.434Z,61.18
2022-12-13T19:38:16.205Z,61.22
2022-12-13T19:40:42.895Z,60.13
2022-12-13T19:43:11.487Z,60.94
2022-12-13T19:45:38.702Z,62.46
2022-12-13T19:48:05.379Z,61.10
2022-12-13T19:50:32.351Z,61.69
2022-12-13T19:52:59.018Z,60.48
2022-12-13T19:55:26.030Z,62.80
2022-12-13T19:57:53.141Z,62.41
2022-12-13T20:00:20.145Z,62.51
2022-12-13T20:02:47.023Z,63.29
2022-12-13T20:05:14.023Z,64.18
2022-12-13T20:07:41.100Z,63.71
2022-12-13T20:10:08.557Z,62.31
2022-12-13T20:12:40.883Z,61.99
2022-12-13T20:15:08.230Z,61.41
2022-12-13T20:17:35.595Z,62.07
2022-12-13T20:20:02.918Z,63.86
2022-12-13T20:22:30.218Z,64.40
2022-12-13T20:24:59.059Z,62.85
2022-12-13T20:27:26.016Z,63.71
2022-12-13T20:29:53.023Z,63.08
2022-12-13T20:32:21.198Z,62.48
2022-12-13T20:34:54.770Z,62.06
2022-12-13T20:37:22.324Z,62.42
2022-12-13T20:39:49.356Z,61.98
2022-12-13T20:42:16.076Z,63.05
2022-12-13T20:44:42.945Z,62.55
2022-12-13T20:47:10.270Z,62.82
2022-12-13T20:49:37.460Z,63.85
2022-12-13T20:52:04.369Z,63.88
2022-12-13T20:54:31.285Z,64.03
2022-12-13T20:57:18.152Z,64.28
2022-12-13T20:59:49.496Z,66.31
2022-12-13T21:02:17.438Z,66.76
2022-12-13T21:04:44.217Z,64.75
2022-12-13T21:07:13.542Z,64.03
2022-12-13T21:09:40.680Z,61.47
2022-12-13T21:12:07.504Z,62.47
2022-12-13T21:14:34.764Z,64.09
2022-12-13T21:17:02.122Z,64.16
2022-12-13T21:19:34.425Z,64.50
2022-12-13T21:22:02.881Z,64.21
2022-12-13T21:24:29.820Z,64.15
2022-12-13T21:26:57.239Z,66.19
2022-12-13T21:29:24.352Z,65.42
2022-12-13T21:31:51.174Z,67.73
2022-12-13T21:34:19.297Z,67.13
2022-12-13T21:36:47.469Z,67.59
2022-12-13T21:39:15.778Z,66.75
2022-12-13T21:41:43.366Z,67.39
2022-12-13T21:44:14.491Z,66.13
2022-12-13T21:49:29.121Z,65.90
2022-12-13T21:51:57.237Z,67.40
2022-12-13T21:54:24.104Z,67.68
2022-12-13T21:57:09.788Z,66.94
2022-12-13T21:59:36.495Z,68.56
2022-12-13T22:02:17.023Z,68.08
2022-12-13T22:04:43.947Z,68.37
2022-12-13T22:07:12.431Z,69.38
2022-12-13T22:09:39.752Z,69.58
2022-12-13T22:12:10.416Z,67.94
2022-12-13T22:14:37.848Z,70.83
2022-12-13T22:17:04.709Z,69.55
2022-12-13T22:19:31.445Z,69.93
2022-12-13T22:21:58.294Z,68.81
2022-12-13T22:24:25.475Z,66.83
2022-12-13T22:26:52.296Z,68.42
2022-12-13T22:29:18.960Z,68.82
2022-12-13T22:31:48.860Z,67.76
2022-12-13T22:34:16.351Z,67.33
2022-12-13T22:36:43.157Z,67.31
2022-12-13T22:39:17.086Z,67.20
2022-12-13T22:41:44.065Z,67.57
2022-12-13T22:44:15.756Z,67.55
2022-12-13T22:46:42.715Z,69.04
2022-12-13T22:49:11.605Z,68.81
2022-12-13T22:51:38.413Z,68.32
2022-12-13T22:54:05.695Z,68.81
2022-12-13T22:56:32.684Z,68.83
2022-12-13T22:59:04.143Z,69.60
2022-12-13T23:01:31.828Z,68.68
2022-12-13T23:03:59.009Z,67.69
2022-12-13T23:06:29.834Z,68.81
2022-12-13T23:08:57.640Z,67.33
2022-12-13T23:11:43.498Z,67.44
2022-12-13T23:14:14.269Z,67.63
2022-12-13T23:16:41.355Z,67.35
2022-12-13T23:19:40.324Z,67.75
2022-12-13T23:21:57.647Z,67.94
2022-12-13T23:24:27.858Z,67.02
2022-12-13T23:26:54.602Z,68.35
2022-12-13T23:29:21.403Z,68.96
2022-12-13T23:31:49.249Z,68.60
2022-12-13T23:34:16.175Z,67.21
2022-12-13T23:36:43.259Z,68.94
2022-12-13T23:39:11.462Z,69.59
2022-12-13T23:41:38.992Z,69.24
2022-12-13T23:44:06.919Z,71.30
2022-12-13T23:46:35.850Z,71.50
2022-12-13T23:49:04.848Z,72.29
2022-12-13T23:51:31.923Z,71.08
2022-12-13T23:53:59.409Z,69.74
2022-12-13T23:56:26.120Z,69.59
2022-12-13T23:58:53.218Z,70.10
